createdAt,value
2022-10-11T00:01:23.136Z,101131.63
2022-10-11T00:04:26.450Z,101140.66
2022-10-11T00:07:29.524Z,101137.94
2022-10-11T00:10:35.383Z,101136.56
2022-10-11T00:13:38.552Z,101130.59
2022-10-11T00:16:44.498Z,101132.56
2022-10-11T00:19:48.106Z,101135.84
2022-10-11T00:22:50.614Z,101136.16
2022-10-11T00:26:02.296Z,101117.69
2022-10-11T00:29:05.533Z,101118.50
2022-10-11T00:32:09.032Z,101115.56
2022-10-11T00:35:11.654Z,101125.13
2022-10-11T00:38:14.960Z,101121.09
2022-10-11T00:41:18.140Z,101123.81
2022-10-11T00:44:27.170Z,101119.50
2022-10-11T00:47:30.023Z,101122.25
2022-10-11T00:50:36.490Z,101121.50
2022-10-11T00:53:39.194Z,101110.34
2022-10-11T00:56:45.999Z,101114.44
2022-10-11T00:59:52.562Z,101114.22
2022-10-11T01:02:55.225Z,101102.03
2022-10-11T01:05:57.904Z,101106.47
2022-10-11T01:09:00.516Z,101104.03
2022-10-11T01:12:06.864Z,101111.88
2022-10-11T01:15:18.144Z,101108.63
2022-10-11T01:18:47.559Z,101106.72
2022-10-11T01:22:05.820Z,101113.81
2022-10-11T01:25:23.273Z,101113.56
2022-10-11T01:28:42.556Z,101107.56
2022-10-11T01:31:56.613Z,101106.78
2022-10-11T01:35:24.995Z,101098.13
2022-10-11T01:38:34.975Z,101105.47
2022-10-11T01:41:41.259Z,101101.34
2022-10-11T01:44:47.515Z,101091.91
2022-10-11T01:48:08.105Z,101094.38
2022-10-11T01:51:10.746Z,101093.84
2022-10-11T01:55:03.878Z,101090.59
2022-10-11T01:58:33.986Z,101091.94
2022-10-11T02:01:58.879Z,101087.06
2022-10-11T02:05:20.106Z,101093.06
2022-10-11T02:08:47.194Z,101093.59
2022-10-11T02:11:49.831Z,101092.78
2022-10-11T02:14:56.847Z,101096.34
2022-10-11T02:18:02.466Z,101090.34
2022-10-11T02:21:08.906Z,101091.16
2022-10-11T02:24:23.393Z,101091.97
2022-10-11T02:27:30.643Z,101085.44
2022-10-11T02:30:35.118Z,101087.91
2022-10-11T02:33:50.368Z,101097.09
2022-10-11T02:37:08.938Z,101097.38
2022-10-11T02:40:27.685Z,101100.09
2022-10-11T02:43:36.775Z,101095.22
2022-10-11T02:46:41.385Z,101095.75
2022-10-11T02:49:45.980Z,101086.53
2022-10-11T02:52:48.546Z,101096.81
2022-10-11T02:55:53.251Z,101101.41
2022-10-11T02:58:55.977Z,101105.25
2022-10-11T03:01:58.425Z,101094.94
2022-10-11T03:05:01.456Z,101102.75
2022-10-11T03:08:03.982Z,101099.28
2022-10-11T03:11:06.931Z,101102.53
2022-10-11T03:14:09.523Z,101102.31
2022-10-11T03:17:35.008Z,101100.94
2022-10-11T03:20:35.001Z,101090.59
2022-10-11T03:23:37.564Z,101096.28
2022-10-11T03:26:40.067Z,101100.63
2022-10-11T03:29:42.638Z,101106.88
2022-10-11T03:32:45.581Z,101109.88
2022-10-11T03:35:49.037Z,101118.84
2022-10-11T03:38:51.456Z,101111.50
2022-10-11T03:41:54.834Z,101108.75
2022-10-11T03:44:59.599Z,101111.72
2022-10-11T03:48:02.574Z,101117.09
2022-10-11T03:51:05.255Z,101120.59
2022-10-11T03:54:07.897Z,101119.50
2022-10-11T03:57:11.303Z,101124.94
2022-10-11T04:00:15.063Z,101130.09
2022-10-11T04:03:18.356Z,101131.16
2022-10-11T04:06:20.924Z,101127.13
2022-10-11T04:09:24.413Z,101133.28
2022-10-11T04:12:26.993Z,101131.69
2022-10-11T04:15:29.618Z,101130.91
2022-10-11T04:18:32.218Z,101129.25
2022-10-11T04:21:35.384Z,101133.50
2022-10-11T04:24:37.951Z,101129.72
2022-10-11T04:27:40.711Z,101124.56
2022-10-11T04:30:44.088Z,101136.22
2022-10-11T04:33:46.750Z,101137.31
2022-10-11T04:36:50.133Z,101124.84
2022-10-11T04:39:52.884Z,101132.19
2022-10-11T04:42:55.470Z,101126.47
2022-10-11T04:45:58.551Z,101126.44
2022-10-11T04:49:01.059Z,101123.19
2022-10-11T04:52:06.058Z,101129.09
2022-10-11T04:55:10.644Z,101120.66
2022-10-11T04:58:13.205Z,101122.50
2022-10-11T05:01:16.116Z,101124.13
2022-10-11T05:04:19.538Z,101124.94
2022-10-11T05:07:22.869Z,101115.75
2022-10-11T05:10:25.924Z,101123.84
2022-10-11T05:13:29.790Z,101121.03
2022-10-11T05:16:32.295Z,101121.31
2022-10-11T05:19:35.470Z,101128.13
2022-10-11T05:22:38.029Z,101134.63
2022-10-11T05:25:40.635Z,101134.28
2022-10-11T05:28:43.314Z,101133.16
2022-10-11T05:31:46.103Z,101141.75
2022-10-11T05:34:48.747Z,101143.66
2022-10-11T05:37:51.451Z,101152.09
2022-10-11T05:40:54.736Z,101155.03
2022-10-11T05:43:58.119Z,101165.91
2022-10-11T05:47:17.107Z,101162.06
2022-10-11T05:50:25.999Z,101161.59
2022-10-11T05:53:29.894Z,101166.50
2022-10-11T05:56:33.610Z,101166.53
2022-10-11T05:59:36.967Z,101161.91
2022-10-11T06:02:40.308Z,101166.28
2022-10-11T06:05:43.641Z,101176.13
2022-10-11T06:08:47.544Z,101182.84
2022-10-11T06:11:50.710Z,101182.59
2022-10-11T06:14:53.552Z,101188.63
2022-10-11T06:17:56.427Z,101187.84
2022-10-11T06:20:59.905Z,101189.56
2022-10-11T06:24:02.767Z,101186.91
2022-10-11T06:27:05.605Z,101194.19
2022-10-11T06:30:09.853Z,101195.28
2022-10-11T06:33:12.645Z,101194.19
2022-10-11T06:36:17.340Z,101200.06
2022-10-11T06:39:21.244Z,101193.00
2022-10-11T06:42:25.499Z,101195.19
2022-10-11T06:45:29.334Z,101189.81
2022-10-11T06:48:48.136Z,101197.09
2022-10-11T06:51:56.827Z,101193.00
2022-10-11T06:54:59.962Z,101195.38
2022-10-11T06:58:06.167Z,101202.44
2022-10-11T07:01:12.357Z,101205.66
2022-10-11T07:04:15.277Z,101203.19
2022-10-11T07:07:18.457Z,101199.03
2022-10-11T07:10:21.802Z,101202.75
2022-10-11T07:13:25.850Z,101212.47
2022-10-11T07:16:29.113Z,101207.72
2022-10-11T07:19:33.412Z,101210.13
2022-10-11T07:22:36.440Z,101209.47
2022-10-11T07:25:39.252Z,101202.41
2022-10-11T07:28:45.866Z,101204.50
2022-10-11T07:31:53.002Z,101209.06
2022-10-11T07:34:57.657Z,101208.53
2022-10-11T07:38:00.417Z,101213.47
2022-10-11T07:41:09.939Z,101209.22
2022-10-11T07:45:14.096Z,101215.16
2022-10-11T07:49:04.432Z,101212.50
2022-10-11T07:52:08.687Z,101213.69
2022-10-11T07:55:11.619Z,101210.88
2022-10-11T07:58:14.459Z,101217.50
2022-10-11T08:01:18.946Z,101216.50
2022-10-11T08:04:22.086Z,101219.25
2022-10-11T08:07:25.863Z,101222.97
2022-10-11T08:10:30.294Z,101218.41
2022-10-11T08:13:34.850Z,101220.88
2022-10-11T08:16:39.614Z,101224.22
2022-10-11T08:19:43.532Z,101222.69
2022-10-11T08:22:46.336Z,101228.84
2022-10-11T08:25:49.948Z,101219.97
2022-10-11T08:28:53.677Z,101219.28
2022-10-11T08:32:07.917Z,101222.94
2022-10-11T08:35:39.646Z,101216.34
2022-10-11T08:50:15.576Z,101209.31
2022-10-11T08:53:52.244Z,101213.75
2022-10-11T08:56:55.143Z,101209.19
2022-10-11T09:00:01.191Z,101204.94
2022-10-11T09:03:29.018Z,101208.47
2022-10-11T09:06:49.717Z,101211.88
2022-10-11T09:10:17.020Z,101211.88
2022-10-11T09:13:41.569Z,101207.66
2022-10-11T09:16:47.408Z,101210.69
2022-10-11T09:20:02.882Z,101221.19
2022-10-11T09:23:26.610Z,101218.91
2022-10-11T09:27:05.135Z,101220.06
2022-10-11T09:40:04.546Z,101226.81
2022-10-11T09:49:22.232Z,101220.19
2022-10-11T09:53:50.902Z,101217.28
2022-10-11T09:57:22.478Z,101230.91
2022-10-11T10:00:30.457Z,101227.91
2022-10-11T10:03:39.934Z,101220.22
2022-10-11T10:06:43.711Z,101222.66
2022-10-11T10:09:47.027Z,101221.19
2022-10-11T10:12:55.292Z,101214.25
2022-10-11T10:15:59.340Z,101214.03
2022-10-11T10:19:17.370Z,101211.47
2022-10-11T10:22:23.351Z,101197.16
2022-10-11T10:25:40.868Z,101195.31
2022-10-11T10:29:11.033Z,101203.31
2022-10-11T10:32:28.040Z,101193.47
2022-10-11T10:35:54.746Z,101187.75
2022-10-11T10:39:16.914Z,101190.09
2022-10-11T10:42:21.455Z,101191.75
2022-10-11T10:45:33.789Z,101192.66
2022-10-11T10:49:28.392Z,101188.56
2022-10-11T10:52:50.359Z,101182.78
2022-10-11T10:56:16.250Z,101183.38
2022-10-11T10:59:36.938Z,101182.63
2022-10-11T11:02:54.714Z,101176.34
2022-10-11T11:06:07.611Z,101174.22
2022-10-11T11:09:17.220Z,101177.09
2022-10-11T11:12:30.324Z,101177.56
2022-10-11T11:15:48.765Z,101171.97
2022-10-11T11:19:05.519Z,101183.25
2022-10-11T11:22:23.409Z,101181.84
2022-10-11T11:25:41.400Z,101177.03
2022-10-11T11:29:19.544Z,101176.41
2022-10-11T11:32:41.202Z,101172.94
2022-10-11T11:35:53.670Z,101166.72
2022-10-11T11:39:02.681Z,101174.06
2022-10-11T11:42:31.164Z,101175.06
2022-10-11T11:45:46.361Z,101165.19
2022-10-11T11:48:57.032Z,101164.50
2022-10-11T11:52:00.855Z,101165.22
2022-10-11T11:55:18.657Z,101165.84
2022-10-11T12:00:14.720Z,101158.50
2022-10-11T12:03:59.066Z,101159.06
2022-10-11T12:07:17.028Z,101161.13
2022-10-11T12:10:34.940Z,101162.94
2022-10-11T12:13:40.873Z,101159.75
2022-10-11T12:17:06.974Z,101147.84
2022-10-11T12:20:29.518Z,101154.16
2022-10-11T12:23:32.350Z,101150.69
2022-10-11T12:26:43.068Z,101158.84
2022-10-11T12:29:48.709Z,101144.16
2022-10-11T12:32:52.759Z,101143.16
2022-10-11T12:35:55.420Z,101139.31
2022-10-11T12:39:20.554Z,101128.97
2022-10-11T12:42:35.991Z,101134.91
2022-10-11T12:45:39.637Z,101137.63
2022-10-11T12:49:03.939Z,101134.50
2022-10-11T12:58:27.801Z,101130.44
2022-10-11T13:01:37.329Z,101132.66
2022-10-11T13:04:40.435Z,101134.63
2022-10-11T13:07:43.468Z,101124.03
2022-10-11T13:10:48.936Z,101131.78
2022-10-11T13:13:55.649Z,101128.06
2022-10-11T13:17:15.206Z,101131.47
2022-10-11T13:20:23.938Z,101135.94
2022-10-11T13:23:29.447Z,101136.16
2022-10-11T13:26:32.653Z,101129.88
2022-10-11T13:29:39.491Z,101130.00
2022-10-11T13:32:43.198Z,101139.16
2022-10-11T13:35:45.935Z,101132.59
2022-10-11T13:39:00.388Z,101125.13
2022-10-11T13:42:10.933Z,101124.53
2022-10-11T13:45:16.255Z,101129.13
2022-10-11T13:48:18.928Z,101132.38
2022-10-11T13:51:34.577Z,101129.03
2022-10-11T13:55:05.869Z,101129.97
2022-10-11T13:58:36.393Z,101133.25
2022-10-11T14:01:43.709Z,101131.69
2022-10-11T14:04:48.634Z,101136.59
2022-10-11T14:07:52.342Z,101137.50
2022-10-11T14:10:57.853Z,101138.44
2022-10-11T14:14:34.585Z,101133.25
2022-10-11T14:17:45.588Z,101140.50
2022-10-11T14:20:48.136Z,101124.69
2022-10-11T14:24:10.600Z,101131.81
2022-10-11T14:27:23.638Z,101141.22
2022-10-11T14:30:27.892Z,101129.97
2022-10-11T14:33:30.698Z,101132.59
2022-10-11T14:36:33.311Z,101129.91
2022-10-11T14:39:36.955Z,101139.97
2022-10-11T14:42:39.494Z,101133.63
2022-10-11T14:45:42.627Z,101136.50
2022-10-11T14:48:54.811Z,101135.38
2022-10-11T14:51:59.737Z,101137.78
2022-10-11T14:55:02.384Z,101142.25
2022-10-11T14:58:06.873Z,101138.59
2022-10-11T15:01:14.944Z,101135.16
2022-10-11T15:04:18.946Z,101134.91
2022-10-11T15:07:22.135Z,101126.81
2022-10-11T15:10:28.626Z,101133.75
2022-10-11T15:13:31.230Z,101126.81
2022-10-11T15:16:34.843Z,101132.03
2022-10-11T15:19:37.479Z,101135.19
2022-10-11T15:22:40.618Z,101140.16
2022-10-11T15:25:44.280Z,101141.81
2022-10-11T15:28:48.381Z,101143.16
2022-10-11T15:31:51.619Z,101149.16
2022-10-11T15:34:54.169Z,101157.28
2022-10-11T15:37:59.489Z,101154.38
2022-10-11T15:41:03.690Z,101151.84
2022-10-11T15:44:07.117Z,101161.88
2022-10-11T15:47:10.812Z,101151.72
2022-10-11T15:50:44.088Z,101157.72
2022-10-11T15:53:47.552Z,101163.75
2022-10-11T15:56:50.666Z,101170.84
2022-10-11T15:59:53.196Z,101162.78
2022-10-11T16:02:56.670Z,101169.25
2022-10-11T16:06:04.666Z,101173.81
2022-10-11T16:09:07.843Z,101179.47
2022-10-11T16:12:10.390Z,101184.63
2022-10-11T16:15:12.959Z,101182.22
2022-10-11T16:18:18.032Z,101182.41
2022-10-11T16:21:23.581Z,101176.31
2022-10-11T16:24:30.280Z,101184.88
2022-10-11T16:27:33.420Z,101189.25
2022-10-11T16:30:45.098Z,101200.19
2022-10-11T16:33:48.854Z,101194.38
2022-10-11T16:36:51.397Z,101201.44
2022-10-11T16:39:55.033Z,101201.94
2022-10-11T16:42:57.945Z,101209.94
2022-10-11T16:46:00.458Z,101208.63
2022-10-11T16:49:03.980Z,101212.59
2022-10-11T16:52:10.381Z,101215.81
2022-10-11T16:55:13.787Z,101226.06
2022-10-11T16:58:17.257Z,101217.31
2022-10-11T17:01:22.243Z,101224.91
2022-10-11T17:04:25.734Z,101221.84
2022-10-11T17:07:29.117Z,101234.22
2022-10-11T17:10:39.600Z,101233.59
2022-10-11T17:13:42.211Z,101238.31
2022-10-11T17:16:45.617Z,101238.50
2022-10-11T17:19:48.459Z,101236.75
2022-10-11T17:22:51.771Z,101243.16
2022-10-11T17:25:54.353Z,101251.38
2022-10-11T17:28:59.730Z,101247.59
2022-10-11T17:32:02.613Z,101242.97
2022-10-11T17:35:05.568Z,101254.06
2022-10-11T17:38:08.182Z,101253.09
2022-10-11T17:41:11.944Z,101252.41
2022-10-11T17:44:17.481Z,101252.22
2022-10-11T17:47:20.174Z,101250.94
2022-10-11T17:50:24.267Z,101262.06
2022-10-11T17:53:26.775Z,101257.53
2022-10-11T17:56:36.583Z,101262.28
2022-10-11T17:59:40.837Z,101258.75
2022-10-11T18:02:43.412Z,101250.22
2022-10-11T18:05:45.917Z,101259.13
2022-10-11T18:08:49.439Z,101261.56
2022-10-11T18:11:52.994Z,101260.44
2022-10-11T18:14:56.340Z,101268.34
2022-10-11T18:17:59.805Z,101254.47
2022-10-11T18:21:02.410Z,101270.91
2022-10-11T18:24:15.120Z,101269.78
2022-10-11T18:27:17.644Z,101261.88
2022-10-11T18:30:20.074Z,101273.41
2022-10-11T18:33:23.905Z,101271.63
2022-10-11T18:36:30.127Z,101268.69
2022-10-11T18:39:32.612Z,101271.56
2022-10-11T18:42:36.162Z,101276.34
2022-10-11T18:45:38.658Z,101269.75
2022-10-11T18:48:42.680Z,101268.81
2022-10-11T18:51:46.569Z,101266.00
2022-10-11T18:54:50.249Z,101262.84
2022-10-11T18:57:53.895Z,101261.56
2022-10-11T19:01:05.539Z,101255.69
2022-10-11T19:04:10.256Z,101263.72
2022-10-11T19:07:13.440Z,101257.13
2022-10-11T19:10:17.039Z,101260.66
2022-10-11T19:13:19.487Z,101261.91
2022-10-11T19:16:22.947Z,101266.72
2022-10-11T19:19:28.336Z,101266.66
2022-10-11T19:22:31.621Z,101267.06
2022-10-11T19:25:39.470Z,101267.38
2022-10-11T19:28:42.526Z,101273.41
2022-10-11T19:31:52.025Z,101270.19
2022-10-11T19:34:54.559Z,101269.88
2022-10-11T19:37:57.960Z,101275.56
2022-10-11T19:41:02.361Z,101279.63
2022-10-11T19:44:05.884Z,101274.03
2022-10-11T19:47:09.063Z,101275.66
2022-10-11T19:50:14.106Z,101278.19
2022-10-11T19:53:17.421Z,101278.63
2022-10-11T19:56:20.497Z,101284.34
2022-10-11T19:59:23.096Z,101284.06
2022-10-11T20:02:25.552Z,101286.38
2022-10-11T20:05:29.015Z,101288.78
2022-10-11T20:08:32.319Z,101288.75
2022-10-11T20:11:35.821Z,101299.34
2022-10-11T20:14:38.274Z,101301.94
2022-10-11T20:17:50.373Z,101296.16
2022-10-11T20:20:54.729Z,101297.75
2022-10-11T20:24:03.373Z,101289.94
2022-10-11T20:27:06.940Z,101287.25
2022-10-11T20:30:10.569Z,101294.34
2022-10-11T20:33:13.041Z,101289.97
2022-10-11T20:36:21.592Z,101300.38
2022-10-11T20:39:24.732Z,101302.38
2022-10-11T20:42:29.981Z,101304.78
2022-10-11T20:45:32.579Z,101307.03
2022-10-11T20:48:37.349Z,101306.59
2022-10-11T20:51:41.917Z,101304.75
2022-10-11T20:54:44.437Z,101302.66
2022-10-11T20:57:46.858Z,101298.69
2022-10-11T21:00:50.459Z,101304.81
2022-10-11T21:03:53.753Z,101310.19
2022-10-11T21:06:56.256Z,101310.53
2022-10-11T21:09:58.666Z,101311.47
2022-10-11T21:13:01.257Z,101313.59
2022-10-11T21:16:11.370Z,101311.47
2022-10-11T21:19:15.278Z,101306.38
2022-10-11T21:22:18.669Z,101310.78
2022-10-11T21:25:21.203Z,101312.50
2022-10-11T21:28:23.694Z,101312.81
2022-10-11T21:31:32.679Z,101316.03
2022-10-11T21:34:37.144Z,101317.00
2022-10-11T21:37:39.612Z,101320.94
2022-10-11T21:40:42.064Z,101316.94
2022-10-11T21:43:45.391Z,101316.53
2022-10-11T21:47:05.957Z,101315.16
2022-10-11T21:50:10.727Z,101313.00
2022-10-11T21:53:13.165Z,101314.28
2022-10-11T21:56:15.705Z,101302.28
2022-10-11T21:59:18.174Z,101317.22
2022-10-11T22:02:20.707Z,101319.13
2022-10-11T22:05:24.309Z,101318.91
2022-10-11T22:08:27.638Z,101317.34
2022-10-11T22:11:31.431Z,101307.84
2022-10-11T22:14:34.623Z,101320.13
2022-10-11T22:17:37.644Z,101319.00
2022-10-11T22:20:40.157Z,101315.47
2022-10-11T22:23:45.872Z,101315.53
2022-10-11T22:26:48.377Z,101309.84
2022-10-11T22:29:51.661Z,101312.84
2022-10-11T22:32:54.157Z,101313.72
2022-10-11T22:35:58.793Z,101305.94
2022-10-11T22:39:07.695Z,101305.66
2022-10-11T22:42:11.170Z,101308.38
2022-10-11T22:45:13.644Z,101316.19
2022-10-11T22:48:16.712Z,101311.63
2022-10-11T22:51:19.856Z,101308.91
2022-10-11T22:54:23.257Z,101304.00
2022-10-11T22:57:25.797Z,101315.47
2022-10-11T23:00:29.253Z,101315.47
2022-10-11T23:03:31.726Z,101320.38
2022-10-11T23:06:34.311Z,101311.66
2022-10-11T23:09:37.685Z,101319.03
2022-10-11T23:12:40.259Z,101321.47
2022-10-11T23:15:42.808Z,101325.28
2022-10-11T23:18:45.399Z,101324.66
2022-10-11T23:21:48.850Z,101329.22
2022-10-11T23:24:51.339Z,101332.22
2022-10-11T23:27:53.815Z,101327.44
2022-10-11T23:30:56.398Z,101338.28
2022-10-11T23:33:59.749Z,101333.69
2022-10-11T23:37:03.917Z,101333.97
2022-10-11T23:40:07.222Z,101340.50
2022-10-11T23:43:10.320Z,101337.78
2022-10-11T23:46:12.826Z,101336.25
2022-10-11T23:49:16.385Z,101341.47
2022-10-11T23:52:19.757Z,101344.50
2022-10-11T23:55:22.736Z,101343.16
2022-10-11T23:58:25.312Z,101345.59
